Time;durP1;ratioP1;P1;durP2;ratioP2;P2;SDS_P1;SDS_P2;PMS_P1;PMS_P2;Temp;Humidity;BMP_temperature;BMP_pressure;BME280_temperature;BME280_humidity;BME280_pressure;Samples;Min_cycle;Max_cycle;Signal;HPM_P1;HPM_P2
2023/10/18 00:01:02;;;;;;;207.20;77.55;;;;;;;4.33;100.00;101753.00;4967996;28;20234;-47
2023/10/18 00:03:29;;;;;;;194.77;75.05;;;;;;;4.28;100.00;101732.63;4969724;28;20189;-49
2023/10/18 00:05:56;;;;;;;193.07;74.78;;;;;;;4.11;100.00;101744.09;4965924;28;20182;-49
2023/10/18 00:08:24;;;;;;;206.25;75.22;;;;;;;4.09;100.00;101737.03;4968951;28;20182;-47
2023/10/18 00:10:53;;;;;;;208.07;75.88;;;;;;;4.01;100.00;101741.41;4966332;28;20264;-49
2023/10/18 00:13:24;;;;;;;182.93;73.93;;;;;;;4.04;100.00;101734.31;4972858;28;20170;-50
2023/10/18 00:15:53;;;;;;;191.43;73.35;;;;;;;3.91;100.00;101735.16;4970999;28;20181;-48
2023/10/18 00:18:21;;;;;;;175.50;71.30;;;;;;;3.81;100.00;101739.56;4979437;28;20185;-47
2023/10/18 00:20:56;;;;;;;128.52;67.25;;;;;;;3.79;100.00;101746.63;4952098;28;20202;-48
2023/10/18 00:23:22;;;;;;;210.27;74.75;;;;;;;3.89;100.00;101751.09;4968751;28;20653;-48
2023/10/18 00:25:47;;;;;;;180.85;71.65;;;;;;;3.80;100.00;101740.41;4972121;28;20261;-48
2023/10/18 00:28:13;;;;;;;150.90;69.93;;;;;;;3.69;100.00;101743.00;4972957;28;20302;-48
2023/10/18 00:30:39;;;;;;;202.80;74.07;;;;;;;3.77;100.00;101735.13;4953227;28;20187;-47
2023/10/18 00:33:06;;;;;;;115.70;64.70;;;;;;;3.75;100.00;101736.88;4965334;28;20671;-47
2023/10/18 00:35:32;;;;;;;158.13;70.90;;;;;;;3.54;100.00;101740.28;4954148;28;20205;-50
2023/10/18 00:37:58;;;;;;;215.95;73.13;;;;;;;3.64;100.00;101738.59;4964950;28;20355;-51
2023/10/18 00:43:16;;;;;;;208.55;72.00;;;;;;;3.59;100.00;101729.75;4971185;28;20186;-48
2023/10/18 00:45:47;;;;;;;219.90;71.53;;;;;;;3.62;100.00;101713.84;4956905;28;20189;-48
2023/10/18 00:48:13;;;;;;;217.50;72.05;;;;;;;3.57;100.00;101726.19;4967402;28;20598;-48
2023/10/18 00:50:43;;;;;;;208.35;70.75;;;;;;;3.50;100.00;101722.63;4958314;28;20162;-49
2023/10/18 00:53:17;;;;;;;216.27;71.60;;;;;;;3.54;100.00;101719.09;4982539;28;20675;-49
2023/10/18 00:55:42;;;;;;;218.82;70.07;;;;;;;3.48;100.00;101717.31;4969444;28;20194;-50
2023/10/18 00:58:11;;;;;;;210.65;69.15;;;;;;;3.47;100.00;101715.53;4957294;28;20180;-49
2023/10/18 01:00:40;;;;;;;234.02;71.63;;;;;;;3.55;100.00;101707.63;4942182;28;20672;-48
2023/10/18 01:03:09;;;;;;;206.80;69.05;;;;;;;3.52;100.00;101715.59;4973526;28;20174;-49
2023/10/18 01:05:35;;;;;;;208.75;69.80;;;;;;;3.49;100.00;101710.25;4981007;28;20664;-48
2023/10/18 01:08:09;;;;;;;226.82;71.30;;;;;;;3.58;100.00;101699.69;4967396;28;20222;-47
2023/10/18 01:10:37;;;;;;;231.98;70.07;;;;;;;3.58;100.00;101690.84;4973496;28;20313;-47
2023/10/18 01:13:03;;;;;;;239.55;72.78;;;;;;;3.46;100.00;101697.00;4968113;28;20652;-50
2023/10/18 01:15:31;;;;;;;219.02;70.35;;;;;;;3.35;100.00;101691.66;4978720;28;20660;-49
2023/10/18 01:17:57;;;;;;;226.00;70.03;;;;;;;3.38;100.00;101688.13;4965566;28;20245;-47
2023/10/18 01:22:57;;;;;;;235.10;70.65;;;;;;;3.36;100.00;101684.56;4957233;28;20320;-47
2023/10/18 01:25:24;;;;;;;226.57;70.03;;;;;;;3.33;100.00;101687.22;4978668;28;20240;-48
2023/10/18 01:27:51;;;;;;;207.20;67.90;;;;;;;3.25;100.00;101676.56;4955962;28;20162;-51
2023/10/18 01:30:19;;;;;;;192.48;67.03;;;;;;;3.23;100.00;101676.56;4979623;28;20169;-49
2023/10/18 01:32:45;;;;;;;206.25;67.13;;;;;;;3.15;100.00;101677.38;4969298;28;20178;-50
2023/10/18 01:35:13;;;;;;;208.48;67.10;;;;;;;3.14;100.00;101670.31;4968778;28;20620;-48
2023/10/18 01:37:39;;;;;;;177.45;64.43;;;;;;;3.09;100.00;101680.91;4958471;28;20556;-49
2023/10/18 01:40:41;;;;;;;149.57;63.13;;;;;;;3.10;100.00;101680.00;4972644;28;20201;-49
2023/10/18 01:43:10;;;;;;;179.43;63.20;;;;;;;3.06;100.00;101675.56;4971593;28;20760;-55
2023/10/18 01:45:39;;;;;;;185.13;64.22;;;;;;;3.06;100.00;101673.81;4954698;28;20302;-48
2023/10/18 01:48:09;;;;;;;191.63;64.38;;;;;;;3.11;100.00;101673.84;4954826;28;20178;-50
2023/10/18 01:50:39;;;;;;;201.75;65.97;;;;;;;3.02;100.00;101674.69;4974207;28;20228;-48
2023/10/18 01:53:15;;;;;;;181.52;63.28;;;;;;;2.97;100.00;101673.75;4955112;28;20196;-47
2023/10/18 01:55:42;;;;;;;173.25;63.90;;;;;;;2.91;100.00;101668.44;4973378;28;20197;-48
2023/10/18 01:58:09;;;;;;;118.53;58.47;;;;;;;2.93;100.00;101671.97;4949004;28;20194;-49
2023/10/18 02:00:41;;;;;;;131.50;60.88;;;;;;;2.86;100.00;101655.19;4970977;28;20201;-47
2023/10/18 02:03:12;;;;;;;107.70;55.55;;;;;;;2.86;100.00;101659.56;4967831;28;20675;-48
2023/10/18 02:05:39;;;;;;;149.40;63.28;;;;;;;2.94;100.00;101667.56;4956014;28;20700;-48
2023/10/18 02:08:05;;;;;;;182.52;66.72;;;;;;;2.97;100.00;101662.28;4972470;28;20194;-49
2023/10/18 02:10:33;;;;;;;161.93;62.15;;;;;;;2.88;100.00;101660.44;4950074;28;20241;-48
2023/10/18 02:13:00;;;;;;;174.73;64.15;;;;;;;2.85;100.00;101655.16;4967408;28;20182;-49
2023/10/18 02:15:26;;;;;;;163.52;65.03;;;;;;;2.87;100.00;101653.41;4954275;28;20277;-49
2023/10/18 02:17:53;;;;;;;177.93;64.50;;;;;;;2.84;100.00;101658.66;4970650;28;20189;-50
2023/10/18 02:20:26;;;;;;;193.45;67.65;;;;;;;2.86;100.00;101656.91;4971720;28;20233;-48
2023/10/18 02:22:59;;;;;;;200.52;65.30;;;;;;;2.86;100.00;101657.81;4968958;28;20210;-47
2023/10/18 02:25:43;;;;;;;144.52;60.90;;;;;;;2.75;100.00;101645.38;4966098;28;20218;-47
2023/10/18 02:28:22;;;;;;;95.85;54.13;;;;;;;2.66;100.00;101655.00;4969746;28;20174;-48
2023/10/18 02:30:58;;;;;;;124.28;55.92;;;;;;;2.53;100.00;101650.50;4963299;28;20178;-47
2023/10/18 02:33:36;;;;;;;96.63;52.00;;;;;;;2.60;100.00;101648.78;4966479;28;20545;-46
2023/10/18 02:36:06;;;;;;;117.72;55.10;;;;;;;2.72;100.00;101651.53;4972013;28;20596;-47
2023/10/18 02:38:33;;;;;;;45.72;34.22;;;;;;;2.76;100.00;101650.69;4970700;28;20213;-49
2023/10/18 02:41:01;;;;;;;123.30;54.85;;;;;;;2.88;100.00;101655.16;4966571;28;20204;-49
2023/10/18 02:43:29;;;;;;;27.27;20.38;;;;;;;2.81;100.00;101658.66;4964029;28;20381;-47
2023/10/18 02:45:54;;;;;;;32.22;26.30;;;;;;;2.83;100.00;101649.84;4951935;28;20248;-49
2023/10/18 02:48:24;;;;;;;5.45;4.60;;;;;;;2.82;100.00;101658.66;4962256;28;20178;-48
2023/10/18 02:50:55;;;;;;;13.15;12.05;;;;;;;2.87;100.00;101661.34;4969715;28;20178;-47
2023/10/18 02:53:21;;;;;;;42.97;29.63;;;;;;;2.91;100.00;101656.94;4957919;28;20198;-48
2023/10/18 02:55:58;;;;;;;8.63;5.82;;;;;;;2.98;100.00;101658.78;4953102;28;20214;-47
2023/10/18 02:58:32;;;;;;;22.75;20.33;;;;;;;3.01;100.00;101656.13;4951368;28;20190;-49
2023/10/18 03:01:05;;;;;;;6.70;4.32;;;;;;;2.95;100.00;101649.06;4946006;28;20203;-49
2023/10/18 03:03:31;;;;;;;22.70;20.48;;;;;;;3.08;100.00;101656.19;4975322;28;20185;-47
2023/10/18 03:06:01;;;;;;;34.70;28.38;;;;;;;3.08;100.00;101658.84;4956856;28;20533;-48
2023/10/18 03:08:28;;;;;;;20.67;18.52;;;;;;;3.12;100.00;101641.19;4965792;28;20272;-48
2023/10/18 03:10:54;;;;;;;15.45;14.25;;;;;;;3.20;100.00;101638.59;4970761;28;20333;-49
2023/10/18 03:13:23;;;;;;;34.42;30.73;;;;;;;3.25;100.00;101645.66;4967723;28;20188;-47
2023/10/18 03:18:43;;;;;;;82.00;49.25;;;;;;;3.37;100.00;101638.66;4954500;28;20193;-46
2023/10/18 03:21:20;;;;;;;60.60;43.05;;;;;;;3.40;100.00;101639.56;4957416;28;20203;-46
2023/10/18 03:23:53;;;;;;;59.55;42.67;;;;;;;3.48;100.00;101651.09;4967131;28;20204;-47
2023/10/18 03:26:33;;;;;;;80.38;47.42;;;;;;;3.50;100.00;101646.69;4950326;28;20202;-47
2023/10/18 03:29:01;;;;;;;54.88;41.75;;;;;;;3.52;100.00;101646.69;4967647;28;20272;-46
2023/10/18 03:31:27;;;;;;;93.55;53.97;;;;;;;3.55;100.00;101637.88;4960000;28;20192;-47
2023/10/18 03:34:02;;;;;;;84.00;51.17;;;;;;;3.60;100.00;101636.97;4966326;28;20712;-46
2023/10/18 03:36:32;;;;;;;82.35;51.65;;;;;;;3.66;100.00;101626.41;4965322;28;20218;-47
2023/10/18 03:39:32;;;;;;;64.00;44.40;;;;;;;3.64;100.00;101633.47;4967402;28;20186;-46
2023/10/18 03:41:52;;;;;;;23.38;21.42;;;;;;;3.68;100.00;101631.72;4951738;28;20213;-45
2023/10/18 03:44:26;;;;;;;55.90;42.42;;;;;;;3.74;100.00;101630.84;4969436;28;20256;-47
2023/10/18 03:47:04;;;;;;;71.13;48.65;;;;;;;3.80;100.00;101622.91;4948294;28;20174;-46
2023/10/18 03:49:38;;;;;;;107.32;58.25;;;;;;;3.80;100.00;101630.88;4969562;28;20178;-46
2023/10/18 03:57:41;;;;;;;175.52;67.40;;;;;;;3.79;100.00;101618.50;4963678;28;20207;-46
2023/10/18 04:00:28;;;;;;;154.60;63.55;;;;;;;3.86;100.00;101630.88;4963719;28;20753;-43
2023/10/18 04:02:56;;;;;;;154.13;62.55;;;;;;;3.94;100.00;101620.31;4967279;28;20190;-47
2023/10/18 04:08:06;;;;;;;147.43;63.63;;;;;;;3.96;100.00;101599.97;4968170;28;20232;-44
2023/10/18 04:10:36;;;;;;;150.70;65.10;;;;;;;3.98;100.00;101606.16;4968193;28;20593;-46
2023/10/18 04:13:04;;;;;;;144.65;61.15;;;;;;;4.10;100.00;101601.75;4968617;28;20277;-46
2023/10/18 04:15:37;;;;;;;187.70;67.15;;;;;;;4.15;100.00;101601.75;4970509;28;20301;-47
2023/10/18 04:20:37;;;;;;;165.85;65.68;;;;;;;4.26;100.00;101605.31;4973831;28;20699;-46
2023/10/18 04:23:12;;;;;;;157.60;66.72;;;;;;;4.29;100.00;101599.13;4972142;28;20182;-45
2023/10/18 04:25:38;;;;;;;190.50;69.57;;;;;;;4.35;100.00;101593.78;4970707;28;20301;-46
2023/10/18 04:28:04;;;;;;;181.98;68.45;;;;;;;4.40;100.00;101597.34;4973831;28;20197;-46
2023/10/18 04:30:31;;;;;;;194.90;71.53;;;;;;;4.45;100.00;101578.78;4968898;28;20221;-45
2023/10/18 04:33:00;;;;;;;170.38;68.72;;;;;;;4.46;100.00;101588.47;4971168;28;20190;-46
2023/10/18 04:35:30;;;;;;;183.15;71.63;;;;;;;4.49;100.00;101589.38;4967136;28;20209;-46
2023/10/18 04:37:56;;;;;;;195.43;71.57;;;;;;;4.53;100.00;101584.97;4968118;28;20198;-46
2023/10/18 04:40:22;;;;;;;204.25;75.18;;;;;;;4.55;100.00;101580.53;4970586;28;20213;-49
2023/10/18 04:42:50;;;;;;;171.60;70.80;;;;;;;4.57;100.00;101592.03;4970770;28;20236;-50
2023/10/18 04:45:18;;;;;;;204.95;76.57;;;;;;;4.57;100.00;101577.84;4970972;28;20201;-45
2023/10/18 04:47:49;;;;;;;201.27;75.43;;;;;;;4.63;100.00;101589.34;4970697;28;20730;-45
2023/10/18 04:50:19;;;;;;;190.48;73.00;;;;;;;4.67;100.00;101582.28;4968973;28;20187;-45
2023/10/18 04:52:47;;;;;;;216.35;74.50;;;;;;;4.68;100.00;101576.06;5017026;23;20224;-41
2023/10/18 04:55:14;;;;;;;219.55;76.85;;;;;;;4.69;100.00;101572.53;5010565;28;20693;-45
2023/10/18 04:57:43;;;;;;;183.80;72.60;;;;;;;4.73;100.00;101571.66;5009124;28;20208;-45
2023/10/18 05:00:24;;;;;;;193.10;73.30;;;;;;;4.71;100.00;101569.00;5004970;28;20646;-42
2023/10/18 05:02:52;;;;;;;37.83;33.97;;;;;;;4.74;100.00;101576.06;5003822;28;20225;-45
2023/10/18 05:05:17;;;;;;;21.27;19.55;;;;;;;4.74;100.00;101576.97;5007505;28;20204;-45
2023/10/18 05:07:47;;;;;;;102.97;60.28;;;;;;;4.79;100.00;101569.00;5005204;28;20562;-44
2023/10/18 05:10:17;;;;;;;143.65;69.57;;;;;;;4.76;100.00;101563.66;5002129;28;20704;-44
2023/10/18 05:12:48;;;;;;;179.73;75.28;;;;;;;4.82;100.00;101571.63;5007031;28;20215;-42
2023/10/18 05:15:18;;;;;;;218.55;76.53;;;;;;;4.81;100.00;101556.59;5003951;28;20348;-45
2023/10/18 05:17:45;;;;;;;193.13;73.18;;;;;;;4.82;100.00;101553.03;5008231;28;20188;-44
2023/10/18 05:22:48;;;;;;;216.15;76.93;;;;;;;4.88;100.00;101555.69;5004840;28;21667;-43
2023/10/18 05:25:23;;;;;;;149.60;61.97;;;;;;;4.83;100.00;101551.25;5006185;28;20205;-44
2023/10/18 05:41:28;;;;;;;226.07;78.15;;;;;;;4.75;100.00;101561.91;5004370;28;20252;-43
2023/10/18 05:44:01;;;;;;;224.38;77.22;;;;;;;4.83;100.00;101562.78;5008482;28;20200;-43
2023/10/18 05:46:33;;;;;;;204.65;74.65;;;;;;;4.71;100.00;101563.69;5006985;28;20193;-43
2023/10/18 05:49:13;;;;;;;142.25;65.38;;;;;;;4.71;100.00;101584.03;5006869;28;20730;-45
2023/10/18 05:51:39;;;;;;;211.82;74.93;;;;;;;4.79;100.00;101571.66;5001793;28;20217;-44
2023/10/18 05:54:05;;;;;;;93.65;61.03;;;;;;;4.82;100.00;101590.22;4999818;28;20351;-44
2023/10/18 05:56:32;;;;;;;128.60;65.40;;;;;;;4.79;100.00;101576.03;4991700;28;20609;-45
2023/10/18 06:01:49;;;;;;;119.00;66.15;;;;;;;4.87;100.00;101575.13;5002903;28;20204;-44
2023/10/18 06:04:23;;;;;;;45.70;40.58;;;;;;;4.83;100.00;101578.72;5005777;28;20189;-43
2023/10/18 06:06:58;;;;;;;141.75;68.78;;;;;;;4.87;100.00;101583.09;5001550;28;20208;-44
2023/10/18 06:09:27;;;;;;;77.72;53.70;;;;;;;4.87;100.00;101574.25;4989236;28;20189;-43
2023/10/18 06:11:56;;;;;;;96.65;61.15;;;;;;;4.85;100.00;101562.75;5006025;28;20177;-45
2023/10/18 06:14:25;;;;;;;45.80;40.15;;;;;;;4.92;100.00;101567.19;5006715;28;20213;-43
2023/10/18 06:17:06;;;;;;;64.78;48.60;;;;;;;4.97;100.00;101559.22;5004520;28;20189;-43
2023/10/18 06:19:33;;;;;;;62.22;50.05;;;;;;;4.97;100.00;101564.50;5004037;28;20598;-45
2023/10/18 06:21:59;;;;;;;71.65;53.60;;;;;;;4.96;100.00;101563.59;5007140;28;20250;-44
2023/10/18 06:24:25;;;;;;;126.93;68.32;;;;;;;4.92;100.00;101562.75;5003390;28;20204;-43
2023/10/18 06:26:52;;;;;;;55.35;39.30;;;;;;;4.99;100.00;101558.31;5005746;28;20708;-43
2023/10/18 06:29:24;;;;;;;180.93;74.80;;;;;;;5.04;100.00;101560.94;5000892;28;20501;-43
2023/10/18 06:31:50;;;;;;;27.67;25.27;;;;;;;4.95;100.00;101565.38;5005275;28;20181;-44
2023/10/18 06:34:22;;;;;;;112.22;63.05;;;;;;;5.03;100.00;101569.78;5005394;28;20200;-44
2023/10/18 06:36:49;;;;;;;68.18;49.97;;;;;;;5.05;100.00;101563.59;5006009;28;20185;-44
2023/10/18 06:39:34;;;;;;;37.47;28.13;;;;;;;4.95;100.00;101552.09;5000702;28;20196;-42
2023/10/18 06:42:06;;;;;;;87.00;50.78;;;;;;;4.92;100.00;101548.59;5003531;28;20209;-44
2023/10/18 06:44:33;;;;;;;90.40;58.30;;;;;;;5.01;100.00;101555.63;5007190;28;20295;-44
2023/10/18 06:47:01;;;;;;;123.60;63.53;;;;;;;5.10;100.00;101568.91;5001987;28;20189;-44
2023/10/18 06:49:27;;;;;;;170.65;73.03;;;;;;;5.19;100.00;101550.25;5003305;28;20188;-43
2023/10/18 06:51:53;;;;;;;175.15;72.28;;;;;;;5.28;100.00;101536.03;5006811;28;20599;-44
2023/10/18 06:54:31;;;;;;;161.40;68.47;;;;;;;5.26;100.00;101546.66;5000904;28;20216;-43
2023/10/18 06:56:57;;;;;;;159.40;70.03;;;;;;;5.33;100.00;101558.16;5004111;28;20185;-43
2023/10/18 06:59:27;;;;;;;137.45;59.60;;;;;;;5.30;100.00;101555.53;5004095;28;20188;-42
2023/10/18 07:01:54;;;;;;;50.92;42.25;;;;;;;5.42;100.00;101554.56;4990507;28;20289;-43
2023/10/18 07:04:34;;;;;;;95.47;55.80;;;;;;;5.49;100.00;101545.69;5001068;28;20662;-43
2023/10/18 07:07:21;;;;;;;132.70;65.53;;;;;;;5.52;100.00;101543.00;5004462;28;20611;-43
2023/10/18 07:09:55;;;;;;;76.05;47.45;;;;;;;5.57;100.00;101551.81;5003557;28;20206;-44
2023/10/18 07:12:26;;;;;;;79.53;48.60;;;;;;;5.67;100.00;101545.56;5003281;28;20185;-45
2023/10/18 07:14:53;;;;;;;101.80;64.53;;;;;;;5.81;100.00;101539.25;5002777;28;20331;-42
2023/10/18 07:17:21;;;;;;;115.03;68.88;;;;;;;5.73;100.00;101531.34;5008635;28;20219;-43
2023/10/18 07:19:50;;;;;;;120.78;71.65;;;;;;;5.67;100.00;101539.38;5001989;28;20185;-44
2023/10/18 07:22:21;;;;;;;86.50;64.47;;;;;;;6.00;100.00;101540.06;5004037;28;20244;-43
2023/10/18 07:24:53;;;;;;;131.38;78.68;;;;;;;6.31;100.00;101530.88;4984769;28;20733;-44
2023/10/18 07:27:20;;;;;;;99.47;68.55;;;;;;;6.28;100.00;101524.75;5005284;28;20536;-42
2023/10/18 07:29:46;;;;;;;90.00;68.00;;;;;;;6.60;100.00;101541.28;5004249;28;20207;-44
2023/10/18 07:32:15;;;;;;;106.32;73.57;;;;;;;6.79;100.00;101527.75;5002680;28;20253;-44
2023/10/18 07:34:42;;;;;;;117.05;75.57;;;;;;;6.76;100.00;101533.13;4999617;28;20240;-42
2023/10/18 07:37:17;;;;;;;130.63;81.03;;;;;;;6.95;100.00;101513.38;5002403;28;20230;-43
2023/10/18 07:39:48;;;;;;;130.15;80.05;;;;;;;7.15;100.00;101517.53;4984326;28;20216;-42
2023/10/18 07:42:14;;;;;;;135.98;81.00;;;;;;;7.15;100.00;101513.09;5002796;28;20205;-44
2023/10/18 07:44:42;;;;;;;153.65;87.43;;;;;;;7.11;100.00;101519.38;5001451;28;20286;-43
2023/10/18 07:47:17;;;;;;;137.95;85.70;;;;;;;7.12;100.00;101510.47;5002653;28;20180;-42
2023/10/18 07:49:45;;;;;;;148.75;85.35;;;;;;;7.27;100.00;101505.84;5002261;28;20261;-43
2023/10/18 07:52:11;;;;;;;142.27;84.50;;;;;;;7.36;100.00;101500.38;5000101;28;20195;-43
2023/10/18 07:54:37;;;;;;;131.13;81.82;;;;;;;7.52;100.00;101498.38;5003403;28;20247;-43
2023/10/18 07:57:03;;;;;;;176.48;92.50;;;;;;;7.64;100.00;101500.84;5004094;28;20741;-43
2023/10/18 07:59:29;;;;;;;188.80;94.55;;;;;;;7.74;100.00;101491.81;5002025;28;20196;-43
2023/10/18 08:04:44;;;;;;;91.28;75.60;;;;;;;8.17;100.00;101477.72;5003819;28;20236;-44
2023/10/18 08:07:15;;;;;;;137.48;92.10;;;;;;;8.24;100.00;101486.50;4999846;28;20188;-44
2023/10/18 08:09:41;;;;;;;119.32;89.53;;;;;;;8.69;100.00;101464.34;4987000;28;20189;-41
2023/10/18 08:12:30;;;;;;;82.60;73.78;;;;;;;8.73;100.00;101460.69;4983549;28;20277;-43
2023/10/18 08:14:55;;;;;;;116.07;93.05;;;;;;;9.14;100.00;101472.28;4999633;28;20224;-42
2023/10/18 08:22:50;;;;;;;144.25;105.05;;;;;;;9.69;100.00;101449.63;5003644;28;20188;-42
2023/10/18 08:25:22;;;;;;;147.02;108.90;;;;;;;9.73;100.00;101451.31;5002036;28;20213;-42
2023/10/18 08:27:51;;;;;;;145.85;109.75;;;;;;;9.84;98.23;101440.34;4988438;28;20199;-41
2023/10/18 08:30:24;;;;;;;153.82;113.65;;;;;;;10.06;96.20;101428.16;5005776;28;20180;-40
2023/10/18 08:32:53;;;;;;;158.85;117.13;;;;;;;10.34;94.38;101422.06;5000062;28;20622;-41
2023/10/18 08:35:20;;;;;;;96.10;86.00;;;;;;;10.32;92.30;101405.19;5005603;28;20193;-41
2023/10/18 08:37:46;;;;;;;122.18;108.85;;;;;;;10.20;90.82;101403.66;5004489;28;20216;-40
2023/10/18 08:40:17;;;;;;;118.38;106.20;;;;;;;10.30;89.94;101394.50;5004040;28;20188;-41
2023/10/18 08:42:51;;;;;;;133.23;114.40;;;;;;;10.55;89.11;101399.16;5003044;28;20280;-40
2023/10/18 08:45:23;;;;;;;139.05;119.82;;;;;;;10.50;87.77;101388.56;4996282;28;20580;-42
2023/10/18 08:47:56;;;;;;;123.38;110.85;;;;;;;10.47;86.58;101390.44;5002257;28;20196;-42
2023/10/18 08:50:25;;;;;;;145.05;124.65;;;;;;;10.62;86.12;101383.78;5001686;28;20189;-42
2023/10/18 08:52:51;;;;;;;131.82;118.13;;;;;;;10.69;84.45;101371.94;4999816;28;20280;-42
2023/10/18 08:55:43;;;;;;;104.35;95.18;;;;;;;10.78;83.36;101365.41;5002092;28;20304;-41
2023/10/18 08:58:08;;;;;;;139.38;122.72;;;;;;;10.73;82.68;101365.56;5001762;28;20181;-43
2023/10/18 09:03:01;;;;;;;134.23;120.45;;;;;;;10.80;81.02;101359.13;5000586;28;20251;-40
2023/10/18 09:05:26;;;;;;;108.40;99.07;;;;;;;10.81;79.57;101346.59;5002432;28;20213;-42
2023/10/18 09:07:53;;;;;;;109.18;99.75;;;;;;;10.85;79.14;101348.25;5002207;28;20515;-40
2023/10/18 09:15:56;;;;;;;122.65;111.53;;;;;;;11.31;78.63;101342.28;5006045;28;20311;-42
2023/10/18 09:18:22;;;;;;;39.65;37.22;;;;;;;11.45;78.00;101336.44;5005134;28;20247;-42
2023/10/18 09:20:48;;;;;;;93.47;86.28;;;;;;;11.43;77.94;101337.44;5008364;28;20208;-42
2023/10/18 09:23:20;;;;;;;79.85;74.43;;;;;;;11.40;77.14;101322.31;5004874;28;20323;-42
2023/10/18 09:25:50;;;;;;;141.98;128.63;;;;;;;11.25;75.48;101291.50;5005023;28;20192;-41
2023/10/18 09:28:41;;;;;;;132.93;121.40;;;;;;;11.60;74.44;101292.09;5003324;28;20304;-43
2023/10/18 09:31:10;;;;;;;131.55;119.75;;;;;;;11.41;74.22;101286.50;5004930;28;20633;-43
2023/10/18 09:33:52;;;;;;;132.88;121.50;;;;;;;11.45;74.04;101296.19;5005591;28;20267;-42
2023/10/18 09:36:19;;;;;;;98.88;90.60;;;;;;;11.41;74.07;101288.31;5007231;28;20696;-43
2023/10/18 09:38:47;;;;;;;117.78;108.45;;;;;;;11.42;74.66;101303.50;5005692;28;20235;-42
2023/10/18 09:41:13;;;;;;;103.00;95.10;;;;;;;11.68;74.70;101302.59;5004952;28;20781;-41
2023/10/18 09:43:38;;;;;;;91.43;85.10;;;;;;;11.63;75.29;101302.75;5004272;28;20537;-43
2023/10/18 09:46:05;;;;;;;48.38;45.67;;;;;;;11.79;75.02;101295.03;5003967;28;20195;-42
2023/10/18 09:48:32;;;;;;;10.60;9.90;;;;;;;11.97;75.32;101296.19;5007423;28;20181;-42
2023/10/18 09:51:06;;;;;;;11.73;10.90;;;;;;;11.92;75.01;101296.38;5003275;28;20180;-42
2023/10/18 09:53:44;;;;;;;32.28;30.27;;;;;;;11.76;73.90;101279.00;5001998;28;20196;-41
2023/10/18 09:56:33;;;;;;;48.35;45.47;;;;;;;11.90;74.47;101284.81;5001378;28;20172;-42
2023/10/18 09:59:37;;;;;;;25.50;24.05;;;;;;;12.07;73.64;101273.44;5004419;28;20193;-42
2023/10/18 10:01:59;;;;;;;108.13;99.90;;;;;;;11.85;72.43;101269.75;5000572;28;20706;-43
2023/10/18 10:04:32;;;;;;;107.28;98.88;;;;;;;11.81;71.96;101265.44;5003904;28;20710;-40
2023/10/18 10:07:27;;;;;;;161.23;146.30;;;;;;;11.87;72.04;101251.78;5001878;28;20213;-42
2023/10/18 10:09:47;;;;;;;67.75;63.30;;;;;;;11.72;72.33;101248.75;5004289;28;20208;-43
2023/10/18 10:12:15;;;;;;;75.97;70.55;;;;;;;11.82;72.23;101259.13;5005319;28;20264;-44
2023/10/18 10:14:41;;;;;;;60.20;56.25;;;;;;;12.03;72.32;101261.06;5002780;28;20271;-43
2023/10/18 10:17:15;;;;;;;101.95;94.47;;;;;;;11.92;72.35;101248.03;5006636;28;20176;-44
2023/10/18 10:19:52;;;;;;;20.20;19.10;;;;;;;12.21;72.48;101254.13;5008203;28;20268;-43
2023/10/18 10:22:24;;;;;;;33.15;31.20;;;;;;;12.40;71.53;101246.22;5004792;28;20702;-43
2023/10/18 10:25:11;;;;;;;1.75;1.58;;;;;;;12.43;71.29;101243.41;5002726;28;20433;-47
2023/10/18 10:30:19;;;;;;;2.00;0.82;;;;;;;12.12;72.15;101247.28;5003883;28;20168;-47
2023/10/18 10:32:55;;;;;;;1.65;1.10;;;;;;;12.14;72.18;101237.34;5006366;28;20204;-46
2023/10/18 10:35:25;;;;;;;0.98;0.80;;;;;;;12.17;72.39;101241.72;5002882;28;20201;-45
2023/10/18 10:37:52;;;;;;;0.82;0.82;;;;;;;12.34;72.90;101244.66;5004214;28;20181;-46
2023/10/18 10:43:14;;;;;;;2.80;1.00;;;;;;;12.15;72.41;101238.22;5001368;28;20185;-46
2023/10/18 10:53:31;;;;;;;1.70;1.35;;;;;;;12.39;72.52;101224.78;4928461;29;20310;-49
2023/10/18 10:55:57;;;;;;;4.50;4.28;;;;;;;12.01;72.37;101219.09;4915777;29;20222;-50
2023/10/18 10:58:29;;;;;;;40.55;38.00;;;;;;;11.98;73.36;101214.69;4935162;29;20733;-50
2023/10/18 11:01:08;;;;;;;1.38;0.88;;;;;;;11.99;73.85;101229.00;4917455;29;20218;-49
2023/10/18 11:03:53;;;;;;;2.33;1.70;;;;;;;12.13;73.70;101218.59;4934258;29;20193;-50
2023/10/18 11:06:24;;;;;;;22.83;21.45;;;;;;;12.24;74.09;101215.50;4920345;29;20191;-49
2023/10/18 11:08:53;;;;;;;10.55;9.68;;;;;;;12.18;73.61;101207.69;4935144;29;20203;-48
2023/10/18 11:11:26;;;;;;;12.68;11.55;;;;;;;12.56;73.31;101203.47;4934627;29;20179;-52
2023/10/18 11:13:52;;;;;;;20.70;19.40;;;;;;;12.42;72.97;101197.78;4934306;29;20195;-50
2023/10/18 11:16:20;;;;;;;14.10;13.35;;;;;;;12.55;72.69;101189.19;4933884;29;20600;-50
2023/10/18 11:18:49;;;;;;;18.63;17.63;;;;;;;12.75;72.78;101188.34;4934734;29;20631;-46
2023/10/18 11:21:24;;;;;;;24.35;23.08;;;;;;;12.48;72.06;101178.72;4934628;29;20262;-48
2023/10/18 11:24:10;;;;;;;33.58;31.50;;;;;;;12.49;71.60;101161.69;4934223;29;20294;-49
2023/10/18 11:26:40;;;;;;;33.10;31.23;;;;;;;12.47;72.12;101169.78;4932193;29;20221;-50
2023/10/18 11:29:07;;;;;;;38.42;36.30;;;;;;;12.75;72.00;101169.53;4915710;29;20228;-51
2023/10/18 11:31:42;;;;;;;12.35;11.60;;;;;;;12.60;71.88;101158.56;4933747;29;20180;-50
2023/10/18 11:34:07;;;;;;;45.47;42.45;;;;;;;12.49;71.58;101159.00;4933429;29;20215;-51
2023/10/18 11:36:34;;;;;;;16.23;15.35;;;;;;;12.46;70.78;101143.88;4934349;29;20202;-49
2023/10/18 11:39:07;;;;;;;10.85;10.27;;;;;;;12.43;69.97;101127.00;4932987;29;20178;-48
2023/10/18 11:41:37;;;;;;;33.17;31.50;;;;;;;12.12;70.33;101137.16;4933304;29;20698;-52
2023/10/18 11:44:07;;;;;;;63.03;59.42;;;;;;;12.38;71.00;101139.75;4932729;29;20199;-49
2023/10/18 11:46:51;;;;;;;32.80;30.67;;;;;;;12.43;70.38;101129.66;4934133;29;20195;-49
2023/10/18 11:49:20;;;;;;;32.88;30.77;;;;;;;12.44;70.56;101123.34;4933901;29;20179;-48
2023/10/18 11:51:51;;;;;;;94.78;88.72;;;;;;;12.39;70.18;101114.59;4931759;29;20195;-48
2023/10/18 11:54:47;;;;;;;19.10;17.85;;;;;;;12.48;70.12;101112.41;4932649;29;20199;-50
2023/10/18 11:57:46;;;;;;;59.10;55.42;;;;;;;12.27;70.08;101114.19;4920626;29;20214;-51
2023/10/18 12:02:51;;;;;;;3.90;1.52;;;;;;;12.47;70.60;101112.50;4933214;29;20199;-51
2023/10/18 12:05:23;;;;;;;1.88;1.77;;;;;;;12.22;70.79;101113.47;4933620;29;20199;-51
2023/10/18 12:07:49;;;;;;;2.28;0.80;;;;;;;12.06;71.20;101106.97;4933108;29;20186;-51
2023/10/18 12:10:17;;;;;;;2.00;1.45;;;;;;;12.14;71.64;101107.56;4933076;29;20210;-51
2023/10/18 12:12:44;;;;;;;3.83;3.08;;;;;;;12.19;71.62;101118.97;4932750;29;20618;-50
2023/10/18 12:15:10;;;;;;;4.25;3.85;;;;;;;12.14;71.49;101110.25;4933446;29;20557;-50
2023/10/18 12:17:35;;;;;;;3.08;1.70;;;;;;;11.88;71.32;101109.47;4932938;29;20175;-52
2023/10/18 12:20:03;;;;;;;3.00;2.15;;;;;;;12.01;71.59;101103.63;4933124;29;20171;-52
2023/10/18 12:22:28;;;;;;;13.60;12.90;;;;;;;11.97;71.57;101099.28;4932158;29;20215;-49
2023/10/18 12:24:54;;;;;;;5.18;4.80;;;;;;;12.26;71.80;101100.81;4933019;29;20254;-52
2023/10/18 12:27:50;;;;;;;9.95;9.32;;;;;;;12.15;71.56;101099.41;4933101;29;20273;-50
2023/10/18 12:33:05;;;;;;;60.63;56.70;;;;;;;12.28;71.16;101069.38;4925178;29;20211;-50